Time;durP1;ratioP1;P1;durP2;ratioP2;P2;SDS_P1;SDS_P2;PMS_P1;PMS_P2;Temp;Humidity;BMP_temperature;BMP_pressure;BME280_temperature;BME280_humidity;BME280_pressure;Samples;Min_cycle;Max_cycle;Signal;HPM_P1;HPM_P2
2021/06/30 00:00:08;;;;;;;9.43;6.93;;;18.40;99.90;;;;;;5066506;28;20020;-87
2021/06/30 00:02:34;;;;;;;10.55;7.50;;;18.40;99.90;;;;;;5066861;28;20078;-87
2021/06/30 00:04:59;;;;;;;10.02;7.88;;;18.40;99.90;;;;;;5068026;28;20028;-87
2021/06/30 00:07:25;;;;;;;9.63;7.05;;;18.40;99.90;;;;;;5066897;28;20028;-87
2021/06/30 00:09:50;;;;;;;8.68;5.72;;;18.40;99.90;;;;;;5066155;28;20025;-87
2021/06/30 00:12:16;;;;;;;8.60;5.43;;;18.40;99.90;;;;;;5066638;28;20032;-87
2021/06/30 00:14:42;;;;;;;6.45;4.53;;;18.40;99.90;;;;;;5066648;28;20029;-87
2021/06/30 00:17:09;;;;;;;7.03;4.43;;;18.40;99.90;;;;;;5059156;28;20084;-87
2021/06/30 00:19:35;;;;;;;7.03;4.70;;;18.40;99.90;;;;;;5054211;28;20538;-87
2021/06/30 00:22:02;;;;;;;7.00;4.60;;;18.40;99.90;;;;;;5053448;28;20071;-88
2021/06/30 00:24:27;;;;;;;7.03;5.22;;;18.40;99.90;;;;;;5053282;28;20098;-87
2021/06/30 00:26:53;;;;;;;7.53;5.05;;;18.50;99.90;;;;;;5053646;28;20049;-87
2021/06/30 00:29:19;;;;;;;7.55;4.55;;;18.50;99.90;;;;;;5053788;28;20136;-87
2021/06/30 00:31:45;;;;;;;9.55;5.07;;;18.50;99.90;;;;;;5053169;28;20025;-86
2021/06/30 00:34:11;;;;;;;8.50;4.97;;;18.50;99.90;;;;;;5053227;28;20397;-87
2021/06/30 00:36:44;;;;;;;7.15;4.60;;;18.50;99.90;;;;;;5053177;28;20025;-87
2021/06/30 00:39:11;;;;;;;6.80;4.60;;;18.50;99.90;;;;;;5053865;28;20024;-87
2021/06/30 00:41:37;;;;;;;6.88;4.28;;;18.50;99.90;;;;;;5053034;28;20017;-87
2021/06/30 00:44:03;;;;;;;6.18;4.30;;;18.40;99.90;;;;;;5053013;28;20136;-87
2021/06/30 00:46:31;;;;;;;8.70;4.53;;;18.40;99.90;;;;;;5052987;28;20556;-87
2021/06/30 00:48:58;;;;;;;7.10;4.07;;;18.40;99.90;;;;;;5052462;28;20047;-87
2021/06/30 00:51:25;;;;;;;7.80;4.38;;;18.40;99.90;;;;;;5054326;28;20025;-87
2021/06/30 00:53:52;;;;;;;6.22;4.03;;;18.40;99.90;;;;;;5071440;28;20033;-87
2021/06/30 00:56:24;;;;;;;5.18;4.03;;;18.40;99.90;;;;;;5078817;28;20025;-87
2021/06/30 00:58:56;;;;;;;5.10;3.60;;;18.40;99.90;;;;;;5078818;28;20035;-87
2021/06/30 01:01:22;;;;;;;6.00;3.72;;;18.50;99.90;;;;;;5079181;28;20021;-86
2021/06/30 01:03:49;;;;;;;6.68;3.85;;;18.50;99.90;;;;;;5071849;28;20040;-87
2021/06/30 01:06:15;;;;;;;4.78;3.33;;;18.50;99.90;;;;;;5053710;28;20040;-87
2021/06/30 01:08:41;;;;;;;7.57;3.55;;;18.50;99.90;;;;;;5054575;28;20025;-87
2021/06/30 01:11:07;;;;;;;4.88;3.63;;;18.50;99.90;;;;;;5052826;28;20029;-87
2021/06/30 01:13:33;;;;;;;5.10;3.00;;;18.40;99.90;;;;;;5064442;28;20052;-86
2021/06/30 01:15:59;;;;;;;4.97;3.22;;;18.40;99.90;;;;;;5065070;28;20036;-87
2021/06/30 01:18:30;;;;;;;4.82;3.38;;;18.40;99.90;;;;;;5064365;28;20036;-87
2021/06/30 01:20:57;;;;;;;4.28;3.08;;;18.40;99.90;;;;;;5065452;28;20059;-87
2021/06/30 01:23:23;;;;;;;3.75;2.63;;;18.30;99.90;;;;;;5065117;28;20033;-87
2021/06/30 01:25:49;;;;;;;4.65;3.08;;;18.30;99.90;;;;;;5066465;28;20579;-87
2021/06/30 01:28:16;;;;;;;3.95;2.80;;;18.30;99.90;;;;;;5076237;28;20069;-87
2021/06/30 01:30:44;;;;;;;4.50;2.90;;;18.30;99.90;;;;;;5077187;28;20009;-86
2021/06/30 01:33:10;;;;;;;4.50;3.03;;;18.30;99.90;;;;;;5078086;28;20029;-87
2021/06/30 01:35:36;;;;;;;4.88;2.63;;;18.30;99.90;;;;;;5077520;28;20045;-86
2021/06/30 01:38:02;;;;;;;3.67;2.80;;;18.30;99.90;;;;;;5078262;28;20013;-87
2021/06/30 01:40:28;;;;;;;4.63;3.28;;;18.30;99.90;;;;;;5054860;28;20025;-87
2021/06/30 01:42:56;;;;;;;5.38;3.03;;;18.30;99.90;;;;;;5053302;28;20076;-87
2021/06/30 01:45:22;;;;;;;3.78;2.60;;;18.20;99.90;;;;;;5053220;28;20036;-87
2021/06/30 01:47:48;;;;;;;7.80;5.30;;;18.20;99.90;;;;;;5053163;28;20264;-87
2021/06/30 01:50:15;;;;;;;6.15;4.15;;;18.20;99.90;;;;;;5052441;28;20253;-87
2021/06/30 01:52:42;;;;;;;4.57;3.10;;;18.20;99.90;;;;;;5051640;28;20021;-87
2021/06/30 01:55:10;;;;;;;4.47;3.00;;;18.20;99.90;;;;;;5052983;28;20035;-87
2021/06/30 01:57:48;;;;;;;3.65;2.97;;;18.20;99.90;;;;;;5051827;28;20040;-87
2021/06/30 02:00:16;;;;;;;4.93;3.08;;;18.20;99.90;;;;;;5050805;28;20062;-87
2021/06/30 02:02:42;;;;;;;4.78;3.35;;;18.10;99.90;;;;;;5051568;28;20478;-87
2021/06/30 02:05:17;;;;;;;4.82;2.72;;;18.10;99.90;;;;;;5052631;28;20040;-87
2021/06/30 02:07:45;;;;;;;3.85;2.88;;;18.10;99.90;;;;;;5052693;28;20025;-87
2021/06/30 02:10:12;;;;;;;5.13;3.38;;;18.20;99.90;;;;;;5050741;28;20024;-87
2021/06/30 02:12:37;;;;;;;4.50;2.90;;;18.20;99.90;;;;;;5051340;28;20029;-87
2021/06/30 02:15:09;;;;;;;3.80;2.85;;;18.20;99.90;;;;;;5052687;28;20111;-87
2021/06/30 02:17:36;;;;;;;4.78;3.15;;;18.20;99.90;;;;;;5051340;28;20151;-87
2021/06/30 02:20:07;;;;;;;4.38;3.20;;;18.20;99.90;;;;;;5050520;28;20428;-87
2021/06/30 02:22:33;;;;;;;5.85;3.53;;;18.10;99.90;;;;;;5050991;28;20027;-87
2021/06/30 02:25:00;;;;;;;5.03;4.05;;;18.10;99.90;;;;;;5052335;28;20037;-87
2021/06/30 02:27:26;;;;;;;10.38;5.10;;;18.10;99.90;;;;;;5052374;28;20025;-87
2021/06/30 02:29:52;;;;;;;7.78;5.18;;;18.20;99.90;;;;;;5051005;28;20067;-87
2021/06/30 02:32:18;;;;;;;7.85;6.00;;;18.20;99.90;;;;;;5055221;28;20481;-87
2021/06/30 02:34:44;;;;;;;8.93;6.28;;;18.10;99.90;;;;;;5055522;28;20040;-87
2021/06/30 02:37:09;;;;;;;8.77;6.10;;;18.20;99.90;;;;;;5054755;28;20025;-87
2021/06/30 02:39:35;;;;;;;7.53;5.80;;;18.20;99.90;;;;;;5051359;28;20033;-87
2021/06/30 02:42:01;;;;;;;7.97;6.13;;;18.10;99.90;;;;;;5052023;28;20047;-87
2021/06/30 02:44:27;;;;;;;6.85;5.88;;;18.10;99.90;;;;;;5050470;28;20382;-87
2021/06/30 02:46:53;;;;;;;7.45;6.05;;;18.10;99.90;;;;;;5049599;28;20473;-87
2021/06/30 02:49:18;;;;;;;8.52;6.65;;;18.10;99.90;;;;;;5049516;28;20032;-87
2021/06/30 02:51:44;;;;;;;9.20;6.88;;;18.10;99.90;;;;;;5050609;28;20025;-87
2021/06/30 02:54:10;;;;;;;10.05;7.07;;;18.10;99.90;;;;;;5050654;28;20021;-87
2021/06/30 02:56:35;;;;;;;10.90;7.70;;;18.10;99.90;;;;;;5051960;28;20025;-87
2021/06/30 02:59:01;;;;;;;9.77;7.80;;;18.10;99.90;;;;;;5050114;28;20021;-87
2021/06/30 03:01:27;;;;;;;10.05;7.75;;;18.10;99.90;;;;;;5051845;28;20036;-87
2021/06/30 03:03:52;;;;;;;11.52;8.45;;;18.00;99.90;;;;;;5050627;28;20539;-87
2021/06/30 03:06:18;;;;;;;11.60;8.23;;;18.10;99.90;;;;;;5051683;28;20062;-87
2021/06/30 03:08:43;;;;;;;10.63;7.85;;;18.00;99.90;;;;;;5050467;28;20116;-87
2021/06/30 03:11:09;;;;;;;8.93;7.65;;;18.00;99.90;;;;;;5049920;28;20389;-87
2021/06/30 03:13:34;;;;;;;8.80;7.80;;;18.00;99.90;;;;;;5051775;28;20075;-87
2021/06/30 03:16:00;;;;;;;9.85;7.25;;;18.00;99.90;;;;;;5050381;28;20079;-87
2021/06/30 03:18:26;;;;;;;8.70;6.32;;;18.10;99.90;;;;;;5051534;28;20063;-87
2021/06/30 03:20:51;;;;;;;7.90;6.72;;;18.10;99.90;;;;;;5049901;28;20127;-87
2021/06/30 03:23:17;;;;;;;7.65;6.47;;;18.00;99.90;;;;;;5050441;28;20025;-87
2021/06/30 03:25:42;;;;;;;9.18;6.57;;;18.00;99.90;;;;;;5050405;28;20071;-87
2021/06/30 03:28:08;;;;;;;7.20;6.07;;;18.00;99.90;;;;;;5050410;28;20036;-87
2021/06/30 03:30:34;;;;;;;7.25;5.78;;;18.00;99.90;;;;;;5050917;28;20021;-87
2021/06/30 03:33:01;;;;;;;8.35;5.75;;;18.00;99.90;;;;;;5050448;28;20104;-87
2021/06/30 03:35:27;;;;;;;7.88;5.80;;;18.00;99.90;;;;;;5050257;28;20028;-87
2021/06/30 03:37:53;;;;;;;7.65;5.75;;;18.00;99.90;;;;;;5050409;28;20120;-87
2021/06/30 03:40:19;;;;;;;7.28;5.50;;;18.00;99.90;;;;;;5053740;28;20096;-87
2021/06/30 03:42:44;;;;;;;6.43;5.50;;;18.00;99.90;;;;;;5053123;28;20057;-87
2021/06/30 03:45:10;;;;;;;8.50;6.25;;;18.10;99.90;;;;;;5050629;28;20029;-87
2021/06/30 03:47:36;;;;;;;9.55;6.63;;;18.10;99.90;;;;;;5050261;28;20098;-87
2021/06/30 03:50:03;;;;;;;7.93;5.88;;;18.10;99.90;;;;;;5050926;28;20032;-87
2021/06/30 03:52:28;;;;;;;10.48;7.47;;;18.10;99.90;;;;;;5052694;28;20056;-87
2021/06/30 03:54:54;;;;;;;12.48;8.18;;;18.10;99.90;;;;;;5053850;28;20072;-87
2021/06/30 03:57:20;;;;;;;13.07;8.77;;;18.10;99.90;;;;;;5053949;28;20029;-87
2021/06/30 03:59:46;;;;;;;14.52;8.40;;;18.10;99.90;;;;;;5054560;28;20405;-87
2021/06/30 04:02:12;;;;;;;13.27;8.15;;;18.20;99.90;;;;;;5055051;28;20025;-87
2021/06/30 04:04:37;;;;;;;12.00;7.97;;;18.10;99.90;;;;;;5053603;28;20025;-87
2021/06/30 04:07:04;;;;;;;11.38;8.57;;;18.20;99.90;;;;;;5054917;28;20031;-87
2021/06/30 04:09:30;;;;;;;13.13;7.57;;;18.10;99.90;;;;;;5052947;28;20382;-87
2021/06/30 04:11:55;;;;;;;10.75;8.13;;;18.10;99.90;;;;;;5053570;28;20024;-87
2021/06/30 04:14:21;;;;;;;11.00;7.85;;;18.10;99.90;;;;;;5055337;28;20028;-87
2021/06/30 04:16:46;;;;;;;11.43;8.27;;;18.10;99.90;;;;;;5053466;28;20060;-87
2021/06/30 04:19:12;;;;;;;12.15;8.00;;;18.10;99.90;;;;;;5052541;28;20059;-87
2021/06/30 04:21:38;;;;;;;12.40;7.53;;;18.10;99.90;;;;;;5054745;28;20057;-87
2021/06/30 04:24:06;;;;;;;12.07;8.57;;;18.10;99.90;;;;;;5053296;28;20029;-87
2021/06/30 04:26:32;;;;;;;10.07;7.20;;;18.10;99.90;;;;;;5053325;28;20400;-87
2021/06/30 04:28:58;;;;;;;12.18;7.38;;;18.10;99.90;;;;;;5053773;28;20029;-87
2021/06/30 04:31:23;;;;;;;9.15;6.78;;;18.10;99.90;;;;;;5053169;28;20025;-87
2021/06/30 04:33:49;;;;;;;9.30;7.00;;;18.10;99.90;;;;;;5054447;28;20385;-87
2021/06/30 04:36:15;;;;;;;10.48;7.30;;;18.10;99.90;;;;;;5054446;28;20096;-86
2021/06/30 04:38:41;;;;;;;9.38;6.57;;;18.00;99.90;;;;;;5054256;28;20044;-87
2021/06/30 04:41:09;;;;;;;9.32;6.72;;;18.00;99.90;;;;;;5052344;28;20482;-86
2021/06/30 04:43:35;;;;;;;11.02;7.43;;;18.00;99.90;;;;;;5052872;28;20025;-87
2021/06/30 04:46:00;;;;;;;9.77;6.93;;;18.00;99.90;;;;;;5053005;28;20395;-86
2021/06/30 04:48:26;;;;;;;13.85;7.07;;;18.00;99.90;;;;;;5052760;28;20064;-86
2021/06/30 04:50:52;;;;;;;11.27;7.35;;;18.00;99.90;;;;;;5052291;28;20079;-86
2021/06/30 04:53:17;;;;;;;8.23;5.95;;;18.00;99.90;;;;;;5052717;28;20032;-85
2021/06/30 04:55:43;;;;;;;12.88;7.60;;;18.00;99.90;;;;;;5054089;28;20029;-86
2021/06/30 04:58:09;;;;;;;9.65;6.55;;;17.90;99.90;;;;;;5054072;28;20539;-86
2021/06/30 05:00:35;;;;;;;10.95;6.95;;;17.90;99.90;;;;;;5053416;28;20075;-86
2021/06/30 05:03:01;;;;;;;10.52;6.22;;;17.90;99.90;;;;;;5052520;28;20033;-86
2021/06/30 05:05:27;;;;;;;8.13;6.18;;;17.90;99.90;;;;;;5052452;28;20086;-85
2021/06/30 05:07:52;;;;;;;13.15;6.20;;;17.90;99.90;;;;;;5054043;28;20017;-84
2021/06/30 05:10:19;;;;;;;8.63;6.13;;;17.90;99.90;;;;;;5053362;28;20056;-86
2021/06/30 05:12:44;;;;;;;9.35;5.43;;;17.90;99.90;;;;;;5052271;28;20466;-85
2021/06/30 05:15:10;;;;;;;11.27;6.22;;;18.00;99.90;;;;;;5052478;28;20039;-86
2021/06/30 05:17:36;;;;;;;8.48;5.53;;;18.00;99.90;;;;;;5052376;28;20032;-86
2021/06/30 05:20:02;;;;;;;9.75;5.60;;;18.00;99.90;;;;;;5065620;22;20140;-84
2021/06/30 05:22:28;;;;;;;12.77;5.20;;;18.00;99.90;;;;;;5016992;28;20076;-84
2021/06/30 05:24:53;;;;;;;7.00;4.60;;;18.10;99.90;;;;;;5017020;28;20033;-83
2021/06/30 05:27:19;;;;;;;5.88;4.20;;;18.10;99.90;;;;;;5018134;28;20052;-84
2021/06/30 05:29:45;;;;;;;23.67;4.57;;;18.10;99.90;;;;;;5019119;28;20029;-85
2021/06/30 05:32:11;;;;;;;8.50;4.20;;;18.10;99.90;;;;;;5019833;28;20393;-84
2021/06/30 05:34:36;;;;;;;8.00;4.60;;;18.10;99.90;;;;;;5037294;28;20033;-85
2021/06/30 05:37:02;;;;;;;6.00;3.58;;;18.10;99.90;;;;;;5019234;28;20052;-85
2021/06/30 05:39:28;;;;;;;7.25;3.55;;;18.10;99.90;;;;;;5016611;28;20061;-84
2021/06/30 05:41:53;;;;;;;7.45;3.80;;;18.10;99.90;;;;;;5035378;28;20448;-84
2021/06/30 05:44:19;;;;;;;6.70;3.47;;;18.10;99.90;;;;;;5017627;28;20390;-84
2021/06/30 05:46:45;;;;;;;4.55;3.10;;;18.10;99.90;;;;;;5035383;28;20414;-84
2021/06/30 05:49:12;;;;;;;9.32;4.68;;;18.10;99.90;;;;;;5034504;28;20025;-84
2021/06/30 05:51:38;;;;;;;7.50;3.85;;;18.10;99.90;;;;;;5017301;28;20021;-84
2021/06/30 05:54:04;;;;;;;5.40;3.20;;;18.10;99.90;;;;;;5016922;28;20056;-84
2021/06/30 05:56:30;;;;;;;5.40;3.10;;;18.20;99.90;;;;;;5016888;28;20060;-86
2021/06/30 05:58:56;;;;;;;7.57;3.20;;;18.20;99.90;;;;;;5033747;28;20453;-83
2021/06/30 06:01:22;;;;;;;5.35;2.80;;;18.20;99.90;;;;;;5016933;28;20108;-83
2021/06/30 06:03:47;;;;;;;8.15;3.13;;;18.20;99.90;;;;;;5016540;28;20111;-84
2021/06/30 06:06:14;;;;;;;7.80;3.03;;;18.20;99.90;;;;;;5016611;28;20115;-84
2021/06/30 06:08:42;;;;;;;5.05;3.10;;;18.20;99.90;;;;;;5016677;28;20029;-84
2021/06/30 06:11:12;;;;;;;6.80;2.88;;;18.10;99.90;;;;;;5033793;28;20041;-85
2021/06/30 06:13:40;;;;;;;5.78;3.20;;;18.10;99.90;;;;;;5015966;28;20120;-84
2021/06/30 06:16:07;;;;;;;5.95;3.20;;;18.10;99.90;;;;;;5016163;28;20388;-84
2021/06/30 06:18:32;;;;;;;9.35;3.30;;;18.10;99.90;;;;;;5033960;28;20025;-84
2021/06/30 06:20:58;;;;;;;8.38;3.53;;;18.10;99.90;;;;;;5033497;28;20108;-84
2021/06/30 06:23:24;;;;;;;7.22;3.83;;;18.10;99.90;;;;;;5016317;28;20500;-83
2021/06/30 06:25:49;;;;;;;6.15;3.90;;;18.10;99.90;;;;;;5033688;28;20022;-84
2021/06/30 06:28:15;;;;;;;6.57;4.38;;;18.10;99.90;;;;;;5016243;28;20390;-84
2021/06/30 06:30:41;;;;;;;7.18;4.93;;;18.10;99.90;;;;;;5015694;28;20039;-85
2021/06/30 06:33:06;;;;;;;7.82;4.95;;;18.10;99.90;;;;;;5015609;28;20508;-85
2021/06/30 06:35:32;;;;;;;8.15;5.53;;;18.10;99.90;;;;;;5016010;28;20443;-84
2021/06/30 06:37:58;;;;;;;10.00;6.40;;;18.10;99.90;;;;;;5015736;28;20047;-84
2021/06/30 06:40:25;;;;;;;11.52;7.30;;;18.20;99.90;;;;;;5015743;28;20108;-84
2021/06/30 06:42:52;;;;;;;10.80;8.30;;;18.20;99.90;;;;;;5015753;28;20545;-85
2021/06/30 06:45:17;;;;;;;9.60;8.05;;;18.20;99.90;;;;;;5016352;28;20029;-85
2021/06/30 06:47:43;;;;;;;14.40;9.15;;;18.20;99.90;;;;;;5033625;28;20022;-86
2021/06/30 06:50:09;;;;;;;12.05;8.38;;;18.20;99.90;;;;;;5032762;28;20029;-84
2021/06/30 06:52:35;;;;;;;10.52;7.15;;;18.20;99.90;;;;;;5015715;28;20025;-84
2021/06/30 06:55:01;;;;;;;12.60;8.80;;;18.20;99.90;;;;;;5033360;28;20029;-84
2021/06/30 06:57:27;;;;;;;12.20;8.50;;;18.20;99.90;;;;;;5016137;28;20026;-84
2021/06/30 06:59:52;;;;;;;11.55;8.50;;;18.20;99.90;;;;;;5015001;28;20021;-84
2021/06/30 07:02:18;;;;;;;13.82;8.30;;;18.20;99.90;;;;;;5015239;28;20433;-84
2021/06/30 07:04:43;;;;;;;11.23;8.15;;;18.20;99.90;;;;;;5033387;28;20032;-84
2021/06/30 07:07:12;;;;;;;9.90;6.85;;;18.20;99.90;;;;;;5015968;28;20025;-84
2021/06/30 07:09:38;;;;;;;;;;;18.20;99.90;;;;;;5015544;28;20029;-84
2021/06/30 07:12:04;;;;;;;6.82;5.07;;;18.20;99.90;;;;;;5015805;28;20368;-84
2021/06/30 07:14:29;;;;;;;7.55;4.65;;;18.20;99.90;;;;;;5015770;28;20025;-86
2021/06/30 07:16:55;;;;;;;6.43;4.40;;;18.20;99.90;;;;;;5015558;28;20022;-84
2021/06/30 07:19:21;;;;;;;6.38;4.60;;;18.30;99.90;;;;;;5015063;28;20040;-84
2021/06/30 07:21:46;;;;;;;9.80;6.60;;;18.30;99.90;;;;;;5032964;28;20485;-84
2021/06/30 07:24:12;;;;;;;4.97;3.90;;;18.30;99.90;;;;;;5032968;28;20381;-84
2021/06/30 07:26:37;;;;;;;6.40;3.90;;;18.30;99.90;;;;;;5034127;28;20068;-84
2021/06/30 07:29:03;;;;;;;6.30;4.13;;;18.30;99.90;;;;;;5018728;28;20037;-84
2021/06/30 07:31:29;;;;;;;5.47;3.13;;;18.30;99.90;;;;;;5019459;28;20116;-83
2021/06/30 07:33:55;;;;;;;4.30;3.08;;;18.30;99.90;;;;;;5037014;28;20037;-84
2021/06/30 07:36:20;;;;;;;5.60;3.22;;;18.40;99.90;;;;;;5037247;28;20040;-84
2021/06/30 07:38:46;;;;;;;4.75;3.00;;;18.40;99.90;;;;;;5036766;28;20034;-85
2021/06/30 07:41:12;;;;;;;3.95;2.75;;;18.40;99.90;;;;;;5036866;28;20025;-84
2021/06/30 07:43:38;;;;;;;4.15;2.22;;;18.40;99.90;;;;;;5019421;28;20084;-84
2021/06/30 07:46:04;;;;;;;3.70;2.35;;;18.40;99.90;;;;;;5019920;28;20037;-84
2021/06/30 07:48:30;;;;;;;5.15;2.30;;;18.30;99.90;;;;;;5036872;28;20032;-84
2021/06/30 07:50:55;;;;;;;3.90;2.65;;;18.30;99.90;;;;;;5018439;28;20025;-84
2021/06/30 07:53:21;;;;;;;11.07;5.18;;;18.40;99.90;;;;;;5018858;28;20032;-84
2021/06/30 07:55:46;;;;;;;17.85;8.00;;;18.30;99.90;;;;;;5036732;28;20026;-85
2021/06/30 07:58:13;;;;;;;12.98;5.80;;;18.40;99.90;;;;;;5018888;28;20032;-84
2021/06/30 08:00:39;;;;;;;7.43;4.07;;;18.40;99.90;;;;;;5036143;28;20116;-84
2021/06/30 08:03:04;;;;;;;6.80;4.03;;;18.40;99.90;;;;;;5019000;28;20108;-84
2021/06/30 08:05:32;;;;;;;6.07;3.38;;;18.40;99.90;;;;;;5036542;28;20029;-84
2021/06/30 08:07:58;;;;;;;4.53;2.90;;;18.40;99.90;;;;;;5018928;28;20022;-84
2021/06/30 08:10:23;;;;;;;4.93;3.20;;;18.40;99.90;;;;;;5036320;28;20029;-84
2021/06/30 08:12:49;;;;;;;6.18;3.50;;;18.40;99.90;;;;;;5036768;28;20488;-85
2021/06/30 08:15:14;;;;;;;6.18;3.45;;;18.40;99.90;;;;;;5036817;28;20033;-84
2021/06/30 08:17:40;;;;;;;3.15;2.20;;;18.40;99.90;;;;;;5037062;28;20390;-84
2021/06/30 08:20:07;;;;;;;5.20;2.63;;;18.40;99.90;;;;;;5017785;28;20037;-84
2021/06/30 08:22:33;;;;;;;4.93;3.08;;;18.40;99.90;;;;;;5036261;28;20049;-84
2021/06/30 08:24:59;;;;;;;6.63;2.72;;;18.40;99.90;;;;;;5018385;28;20398;-84
2021/06/30 08:27:24;;;;;;;4.00;2.30;;;18.40;99.90;;;;;;5018257;28;20029;-84
2021/06/30 08:29:50;;;;;;;6.32;3.22;;;18.40;99.90;;;;;;5018021;28;20049;-84
2021/06/30 08:32:16;;;;;;;3.00;2.22;;;18.30;99.90;;;;;;5018530;28;20052;-84
2021/06/30 08:34:42;;;;;;;3.60;2.35;;;18.30;99.90;;;;;;5018711;28;20060;-84
2021/06/30 08:37:08;;;;;;;2.67;1.92;;;18.30;99.90;;;;;;5018167;28;20025;-85
2021/06/30 08:39:34;;;;;;;4.10;2.10;;;18.30;99.90;;;;;;5017600;28;20024;-85
2021/06/30 08:42:01;;;;;;;3.08;1.70;;;18.30;99.90;;;;;;5018369;28;20065;-84
2021/06/30 08:44:27;;;;;;;1.80;1.65;;;18.20;99.90;;;;;;5018055;28;20100;-84
2021/06/30 08:46:55;;;;;;;1.52;1.35;;;18.20;99.90;;;;;;5035380;28;20553;-84
2021/06/30 08:49:25;;;;;;;2.58;1.50;;;18.30;99.90;;;;;;5017057;28;20028;-84
2021/06/30 08:51:53;;;;;;;3.17;1.70;;;18.20;99.90;;;;;;5017900;28;20025;-84
2021/06/30 08:54:20;;;;;;;3.55;1.60;;;18.20;99.90;;;;;;5017877;28;20052;-84
2021/06/30 08:56:47;;;;;;;2.58;1.52;;;18.20;99.90;;;;;;5035611;28;20021;-83
2021/06/30 08:59:12;;;;;;;4.00;1.70;;;18.20;99.90;;;;;;5016735;28;20030;-84
2021/06/30 09:01:38;;;;;;;2.90;1.50;;;18.30;99.90;;;;;;5035237;28;20071;-85
2021/06/30 09:04:06;;;;;;;2.85;1.92;;;18.30;99.90;;;;;;5017580;28;20108;-84
2021/06/30 09:06:32;;;;;;;4.00;1.70;;;18.40;99.90;;;;;;5017894;28;20026;-84
2021/06/30 09:09:06;;;;;;;3.05;2.30;;;18.40;99.90;;;;;;5017123;28;20117;-84
2021/06/30 09:11:33;;;;;;;3.50;2.20;;;18.50;99.90;;;;;;5017643;28;20393;-84
2021/06/30 09:14:20;;;;;;;4.40;2.30;;;18.40;99.90;;;;;;5017348;28;20026;-85
2021/06/30 09:16:52;;;;;;;3.25;2.22;;;18.40;99.90;;;;;;5017513;28;20060;-84
2021/06/30 09:19:18;;;;;;;4.35;2.63;;;18.50;99.90;;;;;;5016591;28;20025;-84
2021/06/30 09:21:44;;;;;;;2.75;1.80;;;18.60;99.90;;;;;;5035252;28;20033;-84
2021/06/30 09:24:18;;;;;;;5.22;1.73;;;18.60;99.90;;;;;;5017375;28;20417;-84
2021/06/30 09:26:54;;;;;;;2.35;1.65;;;18.70;99.90;;;;;;5035030;28;20390;-84
2021/06/30 09:29:21;;;;;;;3.17;1.83;;;18.70;99.90;;;;;;5016447;28;20040;-84
2021/06/30 09:31:49;;;;;;;4.57;2.30;;;18.70;99.90;;;;;;5034766;28;20021;-84
2021/06/30 09:34:23;;;;;;;3.42;1.85;;;18.70;99.90;;;;;;5017131;28;20436;-83
2021/06/30 09:36:59;;;;;;;2.75;1.70;;;18.60;99.90;;;;;;5017064;28;20517;-84
2021/06/30 09:39:26;;;;;;;2.60;1.85;;;18.60;99.90;;;;;;5016241;28;20021;-85
2021/06/30 09:42:12;;;;;;;3.53;1.88;;;18.60;99.90;;;;;;5016827;28;20029;-84
2021/06/30 09:44:39;;;;;;;5.43;2.88;;;18.60;99.90;;;;;;5017206;28;20476;-85
2021/06/30 09:47:06;;;;;;;3.70;2.65;;;18.60;99.90;;;;;;5034942;28;20017;-86
2021/06/30 09:49:33;;;;;;;3.47;2.63;;;18.70;99.90;;;;;;5015598;28;20025;-83
2021/06/30 09:52:09;;;;;;;3.22;1.90;;;18.70;99.90;;;;;;5016788;28;20386;-84
2021/06/30 09:54:37;;;;;;;3.65;1.90;;;18.80;99.90;;;;;;5016885;28;20018;-83
2021/06/30 09:57:10;;;;;;;2.43;1.90;;;18.70;99.90;;;;;;5034425;28;20018;-84
2021/06/30 09:59:43;;;;;;;3.67;2.80;;;18.70;99.90;;;;;;5015924;28;20314;-86
2021/06/30 10:02:13;;;;;;;3.22;2.40;;;18.70;99.60;;;;;;5034025;28;20212;-84
2021/06/30 10:04:41;;;;;;;3.55;2.25;;;18.70;99.70;;;;;;5016954;28;20113;-84
2021/06/30 10:07:15;;;;;;;4.38;2.22;;;18.60;99.90;;;;;;5016353;28;20116;-84
2021/06/30 10:10:00;;;;;;;2.70;2.05;;;18.60;99.90;;;;;;5015786;28;20089;-84
2021/06/30 10:12:28;;;;;;;3.10;2.08;;;18.70;99.90;;;;;;5034459;28;20021;-84
2021/06/30 10:14:55;;;;;;;3.00;2.50;;;18.70;99.90;;;;;;5016382;28;20025;-85
2021/06/30 10:17:22;;;;;;;3.42;2.13;;;18.70;99.90;;;;;;5016600;28;20074;-84
2021/06/30 10:19:51;;;;;;;4.68;2.85;;;18.70;99.90;;;;;;5033097;28;20128;-85
2021/06/30 10:22:17;;;;;;;4.47;2.40;;;18.70;99.90;;;;;;5015897;28;20044;-85
2021/06/30 10:24:43;;;;;;;4.60;2.65;;;18.70;99.90;;;;;;5033765;28;20107;-84
2021/06/30 10:27:11;;;;;;;3.85;2.40;;;18.60;99.90;;;;;;5016278;28;20033;-84
2021/06/30 10:29:43;;;;;;;3.90;3.00;;;18.50;99.90;;;;;;5033207;28;20118;-84
2021/06/30 10:32:14;;;;;;;4.55;2.90;;;18.50;99.90;;;;;;5033831;28;20024;-84
2021/06/30 10:34:43;;;;;;;3.45;2.67;;;18.40;99.90;;;;;;5033556;28;20110;-85
2021/06/30 10:37:24;;;;;;;2.97;2.55;;;18.30;99.90;;;;;;5033520;28;20032;-84
2021/06/30 10:39:57;;;;;;;4.97;3.35;;;18.30;99.90;;;;;;5033034;28;20024;-84
2021/06/30 10:42:36;;;;;;;4.72;3.47;;;18.40;99.90;;;;;;5033492;28;20124;-84
2021/06/30 10:45:15;;;;;;;3.72;3.13;;;18.40;99.90;;;;;;5016041;28;20029;-83
2021/06/30 10:48:00;;;;;;;6.20;3.22;;;18.40;99.90;;;;;;5016003;28;20030;-84
2021/06/30 10:50:35;;;;;;;4.88;3.25;;;18.50;99.90;;;;;;5032893;28;20034;-84
2021/06/30 10:53:03;;;;;;;5.07;4.13;;;18.50;99.90;;;;;;5033443;28;20037;-84
2021/06/30 10:58:19;;;;;;;4.38;3.40;;;18.60;99.90;;;;;;5033457;28;20021;-84
2021/06/30 11:01:05;;;;;;;4.10;3.10;;;18.60;99.90;;;;;;5014801;28;20028;-84
2021/06/30 11:03:38;;;;;;;3.92;2.90;;;18.50;99.90;;;;;;5016041;28;20022;-84
2021/06/30 11:06:06;;;;;;;4.13;3.17;;;18.50;99.90;;;;;;5033017;28;20505;-84
2021/06/30 11:08:54;;;;;;;6.07;4.53;;;18.50;99.90;;;;;;5015982;28;20030;-85
2021/06/30 11:11:27;;;;;;;6.93;4.75;;;18.40;99.90;;;;;;5033540;28;20032;-84
2021/06/30 11:13:52;;;;;;;4.20;3.53;;;18.40;99.90;;;;;;5015965;28;20029;-85
2021/06/30 11:16:37;;;;;;;5.05;3.55;;;18.40;99.90;;;;;;5015270;28;20517;-83
2021/06/30 11:19:03;;;;;;;5.35;3.90;;;18.40;99.90;;;;;;5015549;28;20410;-85
2021/06/30 11:21:53;;;;;;;4.97;3.78;;;18.50;99.90;;;;;;5014088;28;20057;-85
2021/06/30 11:24:40;;;;;;;5.20;4.30;;;18.50;99.90;;;;;;5013924;28;20026;-85
2021/06/30 11:27:06;;;;;;;7.40;4.28;;;18.50;99.90;;;;;;5014131;28;20389;-85
2021/06/30 11:29:43;;;;;;;5.53;4.40;;;18.50;99.90;;;;;;5013404;28;20022;-85
2021/06/30 11:32:10;;;;;;;7.05;5.25;;;18.60;99.90;;;;;;5031243;28;20048;-85
2021/06/30 11:34:38;;;;;;;6.65;4.80;;;18.60;99.90;;;;;;5013988;28;20095;-85
2021/06/30 11:37:07;;;;;;;7.43;4.43;;;18.60;99.90;;;;;;5013873;28;20148;-85
2021/06/30 11:39:33;;;;;;;7.55;5.55;;;18.60;99.90;;;;;;5013031;28;20022;-85
2021/06/30 11:42:02;;;;;;;5.65;4.50;;;18.60;99.90;;;;;;5013882;28;20025;-85
2021/06/30 11:44:38;;;;;;;7.03;5.28;;;18.60;99.90;;;;;;5031443;28;20021;-85
2021/06/30 11:47:05;;;;;;;9.98;6.57;;;18.60;99.90;;;;;;5014251;28;20101;-85
2021/06/30 11:49:32;;;;;;;7.35;5.32;;;18.50;99.90;;;;;;5013078;28;20470;-85
2021/06/30 11:52:02;;;;;;;6.90;4.85;;;18.50;99.90;;;;;;5013617;28;20025;-85
2021/06/30 11:54:28;;;;;;;6.90;5.10;;;18.50;99.90;;;;;;5013945;28;20092;-85
2021/06/30 11:56:55;;;;;;;7.18;5.45;;;18.50;99.90;;;;;;5013691;28;20043;-85
2021/06/30 11:59:23;;;;;;;8.13;5.82;;;18.50;99.90;;;;;;5013179;28;20108;-85
2021/06/30 12:01:50;;;;;;;8.63;5.60;;;18.50;99.90;;;;;;5031320;28;20045;-85
2021/06/30 12:04:20;;;;;;;7.30;5.45;;;18.50;99.90;;;;;;5013677;28;20026;-85
2021/06/30 12:06:48;;;;;;;8.75;5.30;;;18.50;99.90;;;;;;5013978;28;20402;-86
2021/06/30 12:09:24;;;;;;;9.27;5.60;;;18.50;99.90;;;;;;5012778;28;20029;-85
2021/06/30 12:11:57;;;;;;;6.10;4.90;;;18.50;99.90;;;;;;5013573;28;20028;-85
2021/06/30 12:14:26;;;;;;;6.03;4.70;;;18.50;99.90;;;;;;5016925;28;20516;-85
2021/06/30 12:16:58;;;;;;;7.65;5.65;;;18.60;99.90;;;;;;5016967;28;20026;-85
2021/06/30 12:19:38;;;;;;;7.22;5.32;;;18.60;99.90;;;;;;5016407;28;20121;-84
2021/06/30 12:22:24;;;;;;;12.23;7.15;;;18.60;99.90;;;;;;5016959;28;20482;-85
2021/06/30 12:24:57;;;;;;;8.27;6.40;;;18.50;99.90;;;;;;5034546;28;20115;-85
2021/06/30 12:27:25;;;;;;;9.88;6.68;;;18.40;99.90;;;;;;5017049;28;20034;-85
2021/06/30 12:29:57;;;;;;;9.60;6.18;;;18.30;99.90;;;;;;5016200;28;20030;-85
2021/06/30 12:32:22;;;;;;;7.93;6.18;;;18.20;99.90;;;;;;5016849;28;20033;-85
2021/06/30 12:34:49;;;;;;;7.85;5.93;;;18.20;99.90;;;;;;5016596;28;20433;-85
2021/06/30 12:37:22;;;;;;;10.82;7.00;;;18.20;99.90;;;;;;5016857;28;20056;-85
2021/06/30 12:40:00;;;;;;;12.05;7.82;;;18.20;99.90;;;;;;5016066;28;20029;-85
2021/06/30 12:42:55;;;;;;;10.75;7.82;;;18.10;99.90;;;;;;5016570;28;20030;-85
2021/06/30 12:45:36;;;;;;;9.90;6.90;;;18.10;99.90;;;;;;5016687;28;20033;-85
2021/06/30 12:48:05;;;;;;;10.70;7.47;;;18.10;99.90;;;;;;5034746;28;20032;-85
2021/06/30 12:50:49;;;;;;;10.18;7.40;;;18.20;99.90;;;;;;5015959;28;20183;-86